createdAt,value
2019-02-21T00:01:41.947Z,15.47
2019-02-21T00:04:11.814Z,17.43
2019-02-21T00:06:46.430Z,20.30
2019-02-21T00:09:21.193Z,24.20
2019-02-21T00:11:52.853Z,17.03
2019-02-21T00:14:22.739Z,17.70
2019-02-21T00:16:52.606Z,24.23
2019-02-21T00:19:22.382Z,17.33
2019-02-21T00:21:52.143Z,13.27
2019-02-21T00:24:32.083Z,14.20
2019-02-21T00:27:04.253Z,17.83
2019-02-21T00:29:37.424Z,13.60
2019-02-21T00:32:12.742Z,17.50
2019-02-21T00:34:47.619Z,20.13
2019-02-21T00:37:23.062Z,15.43
2019-02-21T00:39:55.296Z,23.33
2019-02-21T00:42:28.287Z,18.80
2019-02-21T00:44:59.802Z,15.30
2019-02-21T00:47:31.204Z,21.63
2019-02-21T00:50:00.923Z,17.73
2019-02-21T00:52:31.447Z,14.20
2019-02-21T00:55:03.186Z,23.47
2019-02-21T00:57:35.550Z,20.60
2019-02-21T01:00:05.693Z,17.27
2019-02-21T01:02:38.756Z,16.93
2019-02-21T01:05:08.618Z,21.03
2019-02-21T01:07:38.392Z,20.43
2019-02-21T01:10:09.131Z,19.40
2019-02-21T01:12:47.122Z,17.10
2019-02-21T01:15:18.935Z,14.33
2019-02-21T01:18:00.578Z,23.77
2019-02-21T01:20:31.158Z,24.23
2019-02-21T01:23:02.665Z,19.63
2019-02-21T01:25:33.336Z,21.37
2019-02-21T01:28:05.528Z,14.00
2019-02-21T01:30:36.589Z,18.30
2019-02-21T01:33:06.303Z,17.37
2019-02-21T01:35:36.073Z,18.83
2019-02-21T01:38:05.801Z,20.50
2019-02-21T01:40:35.583Z,21.77
2019-02-21T01:43:05.844Z,16.80
2019-02-21T01:45:35.545Z,21.10
2019-02-21T01:48:05.318Z,16.00
2019-02-21T01:50:36.027Z,20.67
2019-02-21T01:53:05.786Z,22.27
2019-02-21T01:55:35.503Z,17.50
2019-02-21T01:58:05.983Z,25.97
2019-02-21T02:00:35.760Z,17.97
2019-02-21T02:03:05.534Z,22.87
2019-02-21T02:05:35.297Z,19.97
2019-02-21T02:08:05.176Z,13.10
2019-02-21T02:10:34.862Z,19.77
2019-02-21T02:13:04.708Z,17.50
2019-02-21T02:15:34.479Z,17.33
2019-02-21T02:18:04.330Z,26.87
2019-02-21T02:20:39.772Z,26.40
2019-02-21T02:23:11.222Z,20.03
2019-02-21T02:25:43.275Z,22.77
2019-02-21T02:28:13.051Z,22.00
2019-02-21T02:30:42.903Z,26.03
2019-02-21T02:33:12.694Z,22.37
2019-02-21T02:35:44.184Z,22.93
2019-02-21T02:38:13.906Z,28.73
2019-02-21T02:40:44.749Z,24.77
2019-02-21T02:43:14.504Z,19.60
2019-02-21T02:45:44.270Z,33.63
2019-02-21T02:48:16.414Z,28.60
2019-02-21T02:50:55.119Z,28.90
2019-02-21T02:53:25.438Z,33.43
2019-02-21T02:55:57.810Z,28.27
2019-02-21T02:58:27.606Z,28.40
2019-02-21T03:00:57.450Z,36.70
2019-02-21T03:03:27.174Z,39.03
2019-02-21T03:05:56.970Z,31.77
2019-02-21T03:08:26.675Z,35.00
2019-02-21T03:10:56.415Z,33.40
2019-02-21T03:13:26.289Z,32.40
2019-02-21T03:15:56.163Z,56.60
2019-02-21T03:18:25.982Z,39.17
2019-02-21T03:20:55.704Z,31.90
2019-02-21T03:23:27.305Z,40.27
2019-02-21T03:25:58.250Z,36.93
2019-02-21T03:28:31.319Z,37.60
2019-02-21T03:31:01.070Z,34.57
2019-02-21T03:33:33.911Z,50.27
2019-02-21T03:36:03.791Z,39.03
2019-02-21T03:38:35.046Z,33.47
2019-02-21T03:41:05.214Z,46.97
2019-02-21T03:43:36.027Z,41.77
2019-02-21T03:46:05.951Z,46.60
2019-02-21T03:48:40.447Z,40.03
2019-02-21T03:51:10.129Z,34.23
2019-02-21T03:53:42.321Z,32.87
2019-02-21T03:56:14.575Z,40.80
2019-02-21T03:58:44.754Z,35.93
2019-02-21T04:01:14.586Z,29.43
2019-02-21T04:03:45.390Z,29.27
2019-02-21T04:06:16.295Z,29.57
2019-02-21T04:08:54.512Z,30.13
2019-02-21T04:11:24.366Z,27.73
2019-02-21T04:13:56.610Z,24.37
2019-02-21T04:16:26.427Z,36.27
2019-02-21T04:19:01.518Z,21.83
2019-02-21T04:21:33.546Z,23.07
2019-02-21T04:24:03.388Z,25.43
2019-02-21T04:26:33.155Z,19.97
2019-02-21T04:29:02.943Z,26.33
2019-02-21T04:31:35.020Z,21.13
2019-02-21T04:34:07.810Z,24.47
2019-02-21T04:36:37.501Z,19.30
2019-02-21T04:39:07.278Z,23.67
2019-02-21T04:41:38.299Z,27.43
2019-02-21T04:44:08.107Z,33.90
2019-02-21T04:46:40.702Z,23.67
2019-02-21T04:49:10.418Z,25.17
2019-02-21T04:51:40.146Z,25.63
2019-02-21T04:54:12.404Z,27.73
2019-02-21T04:56:42.266Z,22.53
2019-02-21T04:59:12.046Z,22.63
2019-02-21T05:01:41.911Z,24.77
2019-02-21T05:04:17.138Z,27.27
2019-02-21T05:06:46.923Z,30.50
2019-02-21T05:09:16.629Z,21.63
2019-02-21T05:11:48.262Z,32.37
2019-02-21T05:14:18.746Z,34.00
2019-02-21T05:16:48.448Z,32.03
2019-02-21T05:19:18.211Z,27.13
2019-02-21T05:21:49.084Z,32.53
2019-02-21T05:24:18.971Z,31.50
2019-02-21T05:26:52.579Z,35.53
2019-02-21T05:29:24.175Z,33.60
2019-02-21T05:32:07.792Z,33.67
2019-02-21T05:34:50.355Z,33.20
2019-02-21T05:37:42.442Z,33.47
2019-02-21T05:40:43.559Z,29.10
2019-02-21T05:43:48.198Z,36.13
2019-02-21T05:46:43.025Z,30.77
2019-02-21T05:49:30.126Z,26.43
2019-02-21T05:52:10.365Z,34.70
2019-02-21T05:54:57.347Z,39.30
2019-02-21T05:57:42.115Z,32.83
2019-02-21T06:00:37.432Z,29.60
2019-02-21T06:03:53.454Z,37.10
2019-02-21T06:06:36.800Z,33.17
2019-02-21T06:09:13.470Z,31.53
2019-02-21T06:12:00.931Z,32.57
2019-02-21T06:14:45.178Z,31.00
2019-02-21T06:17:22.940Z,32.57
2019-02-21T06:20:17.802Z,32.60
2019-02-21T06:23:01.967Z,35.03
2019-02-21T06:25:51.423Z,37.83
2019-02-21T06:28:26.558Z,35.50
2019-02-21T06:31:00.265Z,40.23
2019-02-21T06:33:30.063Z,31.97
2019-02-21T06:36:03.224Z,39.63
2019-02-21T06:38:34.548Z,28.83
2019-02-21T06:41:04.264Z,47.67
2019-02-21T06:43:33.982Z,35.20
2019-02-21T06:46:03.693Z,31.20
2019-02-21T06:48:35.033Z,33.50
2019-02-21T06:51:04.864Z,36.20
2019-02-21T06:53:35.850Z,37.17
2019-02-21T06:56:10.194Z,38.27
2019-02-21T06:58:42.065Z,31.97
2019-02-21T07:01:12.718Z,40.60
2019-02-21T07:03:42.428Z,30.97
2019-02-21T07:06:19.014Z,38.20
2019-02-21T07:08:50.054Z,29.30
2019-02-21T07:11:19.810Z,42.43
2019-02-21T07:13:49.607Z,37.93
2019-02-21T07:16:21.156Z,35.77
2019-02-21T07:18:50.859Z,29.87
2019-02-21T07:21:27.415Z,42.67
2019-02-21T07:24:00.024Z,37.37
2019-02-21T07:26:32.039Z,36.47
2019-02-21T07:29:01.809Z,37.90
2019-02-21T07:31:32.593Z,40.00
2019-02-21T07:34:02.566Z,36.90
2019-02-21T07:36:33.722Z,40.53
2019-02-21T07:39:17.002Z,46.33
2019-02-21T07:41:38.446Z,45.83
2019-02-21T07:44:13.944Z,46.93
2019-02-21T07:46:46.182Z,44.40
2019-02-21T07:49:15.132Z,36.57
2019-02-21T07:51:44.893Z,43.07
2019-02-21T07:54:14.584Z,40.53
2019-02-21T07:56:44.334Z,44.70
2019-02-21T07:59:15.931Z,50.33
2019-02-21T08:01:57.687Z,49.30
2019-02-21T08:04:28.971Z,46.60
2019-02-21T08:06:58.682Z,37.53
2019-02-21T08:09:33.430Z,49.07
2019-02-21T08:12:08.142Z,44.23
2019-02-21T08:14:38.038Z,39.50
2019-02-21T08:17:12.397Z,42.67
2019-02-21T08:19:46.791Z,48.23
2019-02-21T08:22:16.527Z,39.30
2019-02-21T08:24:46.302Z,40.53
2019-02-21T08:27:17.648Z,43.47
2019-02-21T08:29:47.451Z,41.73
2019-02-21T08:32:20.224Z,39.43
2019-02-21T08:34:55.554Z,49.33
2019-02-21T08:37:25.373Z,42.43
2019-02-21T08:40:02.124Z,36.97
2019-02-21T08:42:34.039Z,34.80
2019-02-21T08:45:08.732Z,36.20
2019-02-21T08:47:38.435Z,39.33
2019-02-21T08:50:08.411Z,41.13
2019-02-21T08:52:38.139Z,37.90
2019-02-21T08:55:09.579Z,33.60
2019-02-21T08:57:39.313Z,35.33
2019-02-21T09:00:12.056Z,42.23
2019-02-21T09:02:47.210Z,42.63
2019-02-21T09:05:20.182Z,40.07
2019-02-21T09:07:52.668Z,43.80
2019-02-21T09:10:22.550Z,43.57
2019-02-21T09:12:53.530Z,36.93
2019-02-21T09:15:25.333Z,40.77
2019-02-21T09:17:58.183Z,39.57
2019-02-21T09:20:29.180Z,41.90
2019-02-21T09:23:07.017Z,49.10
2019-02-21T09:25:42.691Z,36.20
2019-02-21T09:28:15.965Z,44.43
2019-02-21T09:30:47.934Z,42.63
2019-02-21T09:33:21.302Z,39.97
2019-02-21T09:35:56.543Z,35.87
2019-02-21T09:38:25.525Z,39.53
2019-02-21T09:40:56.770Z,32.80
2019-02-21T09:43:26.515Z,41.33
2019-02-21T09:45:59.375Z,44.57
2019-02-21T09:48:30.429Z,40.43
2019-02-21T09:51:02.097Z,44.43
2019-02-21T09:53:32.026Z,44.33
2019-02-21T09:56:02.297Z,43.03
2019-02-21T09:58:37.579Z,45.37
2019-02-21T10:01:08.731Z,44.30
2019-02-21T10:03:44.092Z,44.53
2019-02-21T10:06:14.818Z,47.93
2019-02-21T10:08:44.849Z,42.73
2019-02-21T10:11:17.505Z,44.57
2019-02-21T10:13:47.933Z,42.27
2019-02-21T10:16:17.820Z,38.70
2019-02-21T10:18:52.630Z,36.63
2019-02-21T10:21:22.975Z,40.40
2019-02-21T10:23:52.847Z,35.97
2019-02-21T10:26:23.804Z,52.67
2019-02-21T10:28:58.501Z,42.03
2019-02-21T10:31:31.559Z,39.37
2019-02-21T10:34:01.333Z,34.67
2019-02-21T10:36:31.147Z,35.73
2019-02-21T10:39:07.192Z,32.13
2019-02-21T10:41:38.125Z,36.83
2019-02-21T10:44:08.693Z,39.43
2019-02-21T10:46:38.827Z,36.37
2019-02-21T10:49:11.172Z,36.53
2019-02-21T10:51:42.263Z,33.50
2019-02-21T10:54:15.377Z,43.23
2019-02-21T10:56:47.379Z,46.70
2019-02-21T10:59:18.838Z,42.50
2019-02-21T11:01:51.401Z,44.63
2019-02-21T11:04:22.521Z,52.17
2019-02-21T11:06:56.354Z,32.30
2019-02-21T11:09:26.224Z,40.27
2019-02-21T11:11:56.942Z,30.10
2019-02-21T11:14:29.069Z,34.07
2019-02-21T11:16:58.890Z,27.57
2019-02-21T11:19:28.779Z,37.03
2019-02-21T11:22:00.561Z,37.57
2019-02-21T11:24:35.243Z,30.63
2019-02-21T11:27:08.452Z,30.43
2019-02-21T11:29:38.306Z,30.93
2019-02-21T11:32:09.282Z,32.93
2019-02-21T11:34:39.062Z,39.67
2019-02-21T11:37:09.067Z,30.97
2019-02-21T11:39:40.856Z,29.57
2019-02-21T11:42:12.447Z,28.80
2019-02-21T11:44:44.015Z,35.73
2019-02-21T11:47:15.054Z,36.00
2019-02-21T11:49:45.919Z,33.17
2019-02-21T11:52:15.824Z,35.03
2019-02-21T11:54:47.946Z,38.73
2019-02-21T11:57:19.497Z,30.60
2019-02-21T11:59:49.725Z,36.70
2019-02-21T12:02:19.925Z,37.77
2019-02-21T12:04:51.871Z,46.33
2019-02-21T12:07:29.692Z,29.90
2019-02-21T12:10:00.789Z,51.70
2019-02-21T12:12:31.797Z,38.67
2019-02-21T12:15:03.017Z,39.77
2019-02-21T12:17:33.499Z,36.93
2019-02-21T12:20:04.125Z,44.40
2019-02-21T12:22:36.178Z,48.50
2019-02-21T12:25:08.471Z,48.67
2019-02-21T12:27:40.839Z,47.13
2019-02-21T12:30:17.879Z,39.83
2019-02-21T12:32:47.859Z,36.80
2019-02-21T12:35:28.728Z,48.50
2019-02-21T12:37:49.500Z,48.90
2019-02-21T12:40:20.304Z,44.40
2019-02-21T12:42:50.312Z,40.50
2019-02-21T12:45:20.374Z,44.47
2019-02-21T12:47:56.059Z,51.00
2019-02-21T12:50:26.170Z,35.77
2019-02-21T12:52:55.983Z,46.77
2019-02-21T12:55:31.726Z,46.37
2019-02-21T12:58:00.663Z,53.90
2019-02-21T13:00:31.518Z,45.23
2019-02-21T13:03:01.338Z,50.00
2019-02-21T13:05:40.358Z,40.67
2019-02-21T13:08:07.298Z,52.50
2019-02-21T13:10:40.821Z,40.37
2019-02-21T13:13:11.876Z,53.33
2019-02-21T13:15:41.615Z,45.50
2019-02-21T13:18:15.819Z,48.10
2019-02-21T13:20:45.334Z,56.37
2019-02-21T13:23:15.158Z,43.83
2019-02-21T13:25:48.130Z,42.30
2019-02-21T13:28:18.295Z,57.13
2019-02-21T13:30:48.294Z,43.87
2019-02-21T13:33:19.908Z,46.87
2019-02-21T13:35:53.024Z,45.43
2019-02-21T13:38:23.524Z,56.08
2019-02-21T13:40:59.381Z,51.10
2019-02-21T13:43:35.958Z,41.77
2019-02-21T13:46:09.497Z,55.08
2019-02-21T13:48:44.310Z,55.47
2019-02-21T13:51:14.622Z,51.07
2019-02-21T13:53:44.538Z,49.33
2019-02-21T13:56:14.441Z,37.93
2019-02-21T13:58:46.026Z,51.83
2019-02-21T14:01:15.830Z,46.57
2019-02-21T14:03:53.523Z,39.83
2019-02-21T14:06:24.548Z,50.13
2019-02-21T14:08:57.191Z,55.27
2019-02-21T14:11:30.824Z,51.53
2019-02-21T14:14:03.929Z,59.67
2019-02-21T14:16:43.788Z,51.40
2019-02-21T14:19:06.307Z,49.20
2019-02-21T14:21:38.288Z,52.50
2019-02-21T14:24:10.432Z,53.93
2019-02-21T14:26:43.227Z,53.33
2019-02-21T14:29:13.016Z,51.17
2019-02-21T14:31:42.896Z,54.30
2019-02-21T14:34:17.886Z,45.67
2019-02-21T14:36:47.705Z,53.47
2019-02-21T14:39:18.111Z,55.60
2019-02-21T14:41:49.738Z,38.50
2019-02-21T14:44:19.563Z,42.77
2019-02-21T14:46:50.344Z,50.27
2019-02-21T14:49:20.323Z,38.33
2019-02-21T14:51:54.099Z,36.97
2019-02-21T14:54:23.816Z,36.87
2019-02-21T14:56:53.574Z,36.63
2019-02-21T14:59:23.368Z,38.47
2019-02-21T15:01:54.734Z,46.10
2019-02-21T15:04:25.580Z,43.40
2019-02-21T15:06:59.399Z,38.63
2019-02-21T15:09:30.834Z,41.10
2019-02-21T15:12:01.875Z,34.80
2019-02-21T15:14:31.575Z,47.70
2019-02-21T15:17:04.744Z,38.00
2019-02-21T15:19:36.010Z,41.63
2019-02-21T15:22:05.731Z,45.43
2019-02-21T15:24:35.516Z,40.40
2019-02-21T15:27:08.751Z,36.67
2019-02-21T15:29:41.828Z,40.53
2019-02-21T15:32:14.152Z,38.63
2019-02-21T15:34:43.100Z,42.13
2019-02-21T15:37:19.537Z,40.83
2019-02-21T15:39:49.291Z,40.23
2019-02-21T15:42:19.791Z,42.10
2019-02-21T15:44:49.614Z,53.13
2019-02-21T15:47:20.784Z,44.53
2019-02-21T15:49:50.795Z,42.87
2019-02-21T15:52:22.714Z,57.08
2019-02-21T15:54:54.709Z,61.47
2019-02-21T15:57:24.706Z,44.37
2019-02-21T15:59:54.539Z,44.57
2019-02-21T16:02:25.302Z,48.03
2019-02-21T16:05:00.004Z,49.03
2019-02-21T16:07:31.943Z,49.93
2019-02-21T16:10:02.919Z,48.47
2019-02-21T16:12:34.394Z,45.40
2019-02-21T16:15:11.590Z,52.30
2019-02-21T16:17:44.312Z,56.97
2019-02-21T16:20:14.799Z,47.80
2019-02-21T16:22:48.647Z,59.83
2019-02-21T16:25:25.226Z,52.33
2019-02-21T16:28:00.711Z,55.33
2019-02-21T16:30:30.937Z,42.50
2019-02-21T16:33:00.655Z,47.23
2019-02-21T16:35:38.650Z,49.37
2019-02-21T16:38:08.350Z,69.57
2019-02-21T16:40:38.231Z,56.53
2019-02-21T16:43:08.012Z,54.37
2019-02-21T16:45:46.363Z,56.20
2019-02-21T16:48:13.705Z,48.67
2019-02-21T16:50:44.031Z,50.13
2019-02-21T16:53:14.064Z,56.93
2019-02-21T16:55:45.537Z,44.97
2019-02-21T16:58:15.307Z,52.50
2019-02-21T17:00:53.866Z,41.47
2019-02-21T17:03:22.047Z,52.90
2019-02-21T17:05:51.783Z,43.00
2019-02-21T17:08:23.354Z,42.63
2019-02-21T17:10:54.325Z,34.47
2019-02-21T17:13:25.643Z,43.27
2019-02-21T17:15:58.567Z,50.27
2019-02-21T17:18:28.853Z,42.03
2019-02-21T17:21:04.617Z,44.77
2019-02-21T17:23:36.851Z,49.00
2019-02-21T17:26:08.054Z,46.60
2019-02-21T17:28:37.850Z,49.20
2019-02-21T17:31:08.775Z,39.90
2019-02-21T17:33:39.819Z,45.37
2019-02-21T17:36:14.666Z,36.60
2019-02-21T17:38:46.248Z,54.20
2019-02-21T17:41:15.946Z,38.57
2019-02-21T17:43:49.152Z,41.97
2019-02-21T17:46:20.702Z,48.17
2019-02-21T17:48:53.247Z,46.97
2019-02-21T17:51:27.364Z,41.60
2019-02-21T17:53:59.627Z,52.20
2019-02-21T17:56:30.820Z,39.87
2019-02-21T17:59:00.589Z,37.93
2019-02-21T18:01:30.355Z,59.90
2019-02-21T18:04:03.102Z,39.60
2019-02-21T18:06:33.235Z,46.33
2019-02-21T18:09:04.738Z,46.57
2019-02-21T18:11:36.352Z,33.23
2019-02-21T18:14:06.703Z,49.97
2019-02-21T18:16:38.470Z,35.53
2019-02-21T18:19:08.255Z,41.03
2019-02-21T18:21:39.677Z,47.30
2019-02-21T18:24:14.179Z,37.57
2019-02-21T18:26:46.202Z,43.00
2019-02-21T18:29:18.122Z,33.67
2019-02-21T18:31:47.886Z,44.87
2019-02-21T18:34:17.674Z,51.67
2019-02-21T18:36:49.299Z,54.85
2019-02-21T18:39:22.339Z,54.13
2019-02-21T18:41:56.122Z,46.47
2019-02-21T18:44:26.414Z,42.93
2019-02-21T18:46:59.354Z,47.80
2019-02-21T18:49:29.267Z,45.43
2019-02-21T18:51:58.955Z,44.50
2019-02-21T18:54:28.676Z,41.97
2019-02-21T18:56:59.676Z,37.73
2019-02-21T18:59:32.026Z,39.87
2019-02-21T19:02:03.143Z,44.53
2019-02-21T19:04:35.201Z,48.97
2019-02-21T19:07:05.093Z,40.00
2019-02-21T19:09:35.135Z,42.27
2019-02-21T19:12:04.951Z,47.60
2019-02-21T19:14:34.750Z,39.13
2019-02-21T19:17:05.050Z,43.80
2019-02-21T19:19:34.882Z,47.17
2019-02-21T19:22:05.935Z,48.40
2019-02-21T19:24:37.586Z,46.07
2019-02-21T19:27:13.509Z,43.83
2019-02-21T19:29:44.258Z,48.10
2019-02-21T19:32:14.031Z,51.00
2019-02-21T19:34:43.843Z,40.23
2019-02-21T19:37:14.776Z,47.73
2019-02-21T19:39:44.911Z,46.43
2019-02-21T19:42:14.687Z,50.13
2019-02-21T19:44:44.455Z,45.80
2019-02-21T19:47:14.163Z,40.23
2019-02-21T19:49:44.107Z,47.47
2019-02-21T19:52:13.957Z,38.60
2019-02-21T19:54:46.973Z,41.37
2019-02-21T19:57:17.886Z,44.40
2019-02-21T19:59:51.963Z,50.17
2019-02-21T20:02:24.132Z,38.57
2019-02-21T20:05:06.561Z,41.27
2019-02-21T20:07:36.590Z,42.17
2019-02-21T20:10:08.087Z,45.87
2019-02-21T20:12:37.941Z,46.40
2019-02-21T20:15:08.620Z,55.37
2019-02-21T20:17:38.737Z,45.07
2019-02-21T20:20:11.819Z,40.67
2019-02-21T20:22:41.610Z,34.47
2019-02-21T20:25:11.383Z,40.27
2019-02-21T20:27:41.166Z,47.23
2019-02-21T20:30:13.654Z,52.90
2019-02-21T20:32:43.890Z,53.37
2019-02-21T20:35:13.796Z,42.60
2019-02-21T20:37:43.657Z,48.03
2019-02-21T20:40:15.078Z,47.03
2019-02-21T20:42:44.894Z,43.77
2019-02-21T20:45:15.198Z,47.87
2019-02-21T20:47:45.150Z,41.63
2019-02-21T20:50:15.030Z,38.13
2019-02-21T20:52:49.867Z,43.73
2019-02-21T20:55:22.785Z,34.03
2019-02-21T20:57:57.926Z,44.07
2019-02-21T21:00:27.819Z,43.23
2019-02-21T21:02:59.195Z,41.87
2019-02-21T21:05:32.207Z,33.70
2019-02-21T21:08:02.158Z,52.87
2019-02-21T21:10:34.514Z,44.93
2019-02-21T21:13:09.090Z,43.97
2019-02-21T21:15:39.247Z,44.33
2019-02-21T21:18:12.166Z,47.17
2019-02-21T21:20:44.226Z,49.13
2019-02-21T21:23:14.002Z,40.53
2019-02-21T21:25:44.175Z,39.27
2019-02-21T21:28:14.058Z,45.17
2019-02-21T21:30:43.939Z,38.00
2019-02-21T21:33:17.964Z,44.03
2019-02-21T21:35:47.759Z,42.77
2019-02-21T21:38:24.191Z,39.90
2019-02-21T21:40:49.470Z,43.63
2019-02-21T21:43:19.743Z,49.23
2019-02-21T21:46:07.695Z,41.30
2019-02-21T21:48:37.805Z,64.47
2019-02-21T21:51:11.103Z,38.87
2019-02-21T21:53:40.896Z,41.30
2019-02-21T21:56:10.678Z,39.20
2019-02-21T21:58:40.749Z,42.47
2019-02-21T22:01:10.553Z,41.70
2019-02-21T22:03:40.426Z,48.90
2019-02-21T22:06:10.376Z,42.23
2019-02-21T22:08:40.062Z,48.77
2019-02-21T22:11:11.222Z,42.57
2019-02-21T22:13:40.897Z,61.73
2019-02-21T22:16:10.611Z,44.73
2019-02-21T22:18:42.730Z,36.00
2019-02-21T22:21:12.414Z,56.57
2019-02-21T22:23:42.106Z,45.57
2019-02-21T22:26:11.883Z,51.03
2019-02-21T22:28:44.410Z,42.47
2019-02-21T22:31:14.179Z,46.50
2019-02-21T22:33:48.986Z,52.63
2019-02-21T22:36:19.590Z,45.53
2019-02-21T22:38:51.942Z,46.40
2019-02-21T22:41:21.758Z,50.70
2019-02-21T22:43:53.400Z,51.63
2019-02-21T22:46:23.341Z,58.57
2019-02-21T22:48:54.447Z,55.73
2019-02-21T22:51:26.659Z,47.30
2019-02-21T22:53:56.632Z,43.83
2019-02-21T22:56:26.405Z,39.83
2019-02-21T22:58:56.094Z,55.47
2019-02-21T23:01:32.566Z,52.17
2019-02-21T23:04:24.831Z,56.43
2019-02-21T23:07:25.545Z,55.50
2019-02-21T23:09:55.348Z,49.80
2019-02-21T23:12:25.135Z,47.43
2019-02-21T23:14:56.210Z,44.73
2019-02-21T23:17:29.047Z,49.57
2019-02-21T23:20:07.082Z,61.50
2019-02-21T23:22:36.859Z,48.43
2019-02-21T23:25:09.610Z,48.27
2019-02-21T23:27:39.418Z,44.53
2019-02-21T23:30:13.410Z,41.53
2019-02-21T23:32:43.179Z,45.37
2019-02-21T23:35:23.429Z,45.50
2019-02-21T23:37:53.271Z,61.47
2019-02-21T23:40:24.246Z,47.97
2019-02-21T23:42:54.212Z,50.53
2019-02-21T23:45:24.399Z,53.70
2019-02-21T23:47:54.227Z,44.43
2019-02-21T23:50:23.939Z,47.67
2019-02-21T23:52:53.713Z,51.37
2019-02-21T23:55:23.536Z,59.37
2019-02-21T23:57:53.341Z,55.90
